Time;durP1;ratioP1;P1;durP2;ratioP2;P2;SDS_P1;SDS_P2;PMS_P1;PMS_P2;Temp;Humidity;BMP_temperature;BMP_pressure;BME280_temperature;BME280_humidity;BME280_pressure;Samples;Min_cycle;Max_cycle;Signal;HPM_P1;HPM_P2
2022/09/28 00:02:03;;;;;;;1.40;1.00;;;16.50;81.70;;;;;;4994340;28;20488;-79
2022/09/28 00:04:29;;;;;;;1.90;1.00;;;16.50;81.60;;;;;;4994479;28;20089;-79
2022/09/28 00:06:54;;;;;;;2.25;1.30;;;16.50;81.60;;;;;;4994648;28;20116;-79
2022/09/28 00:09:19;;;;;;;2.20;1.17;;;16.50;81.60;;;;;;4977150;28;20476;-79
2022/09/28 00:11:45;;;;;;;1.90;0.95;;;16.50;81.60;;;;;;4976755;28;20050;-77
2022/09/28 00:14:11;;;;;;;1.40;1.00;;;16.50;81.60;;;;;;4976839;28;20022;-79
2022/09/28 00:16:42;;;;;;;2.25;1.20;;;16.50;81.70;;;;;;4976862;28;20027;-77
2022/09/28 00:19:09;;;;;;;;;;;16.50;81.60;;;;;;4976931;28;20484;-80
2022/09/28 00:21:37;;;;;;;2.53;1.30;;;16.60;81.50;;;;;;4977655;28;19913;-79
2022/09/28 00:24:17;;;;;;;2.10;1.02;;;16.50;81.40;;;;;;4993098;28;20486;-78
2022/09/28 00:26:55;;;;;;;2.35;1.00;;;16.60;81.50;;;;;;4976912;28;20072;-78
2022/09/28 00:29:26;;;;;;;2.45;1.17;;;16.60;81.30;;;;;;4994421;28;20030;-76
2022/09/28 00:31:58;;;;;;;2.22;1.15;;;16.60;81.30;;;;;;4994224;28;20447;-77
2022/09/28 00:34:24;;;;;;;1.77;1.00;;;16.60;81.30;;;;;;4992839;28;20023;-78
2022/09/28 00:36:50;;;;;;;2.40;1.20;;;16.50;81.30;;;;;;4977212;28;20022;-78
2022/09/28 00:39:16;;;;;;;2.13;1.20;;;16.60;81.40;;;;;;4994701;28;20076;-78
2022/09/28 00:41:42;;;;;;;1.30;1.00;;;16.50;81.40;;;;;;4994088;28;20022;-78
2022/09/28 00:44:40;;;;;;;1.88;1.27;;;16.50;81.50;;;;;;4992228;28;20465;-78
2022/09/28 00:47:32;;;;;;;2.17;1.00;;;16.50;81.50;;;;;;4992387;28;20057;-77
2022/09/28 00:49:58;;;;;;;2.15;1.17;;;16.50;81.50;;;;;;4992116;28;20018;-78
2022/09/28 00:52:39;;;;;;;1.73;0.95;;;16.50;81.50;;;;;;4975678;28;20069;-77
2022/09/28 00:55:10;;;;;;;1.73;1.00;;;16.50;81.60;;;;;;4992355;28;20026;-78
2022/09/28 00:57:38;;;;;;;2.42;1.15;;;16.50;81.50;;;;;;4993549;28;20082;-78
2022/09/28 01:00:05;;;;;;;2.45;1.00;;;16.50;81.60;;;;;;4993932;28;20124;-77
2022/09/28 01:02:31;;;;;;;1.35;1.00;;;16.50;81.50;;;;;;4991609;28;20037;-77
2022/09/28 01:04:58;;;;;;;1.35;0.90;;;16.50;81.60;;;;;;4992412;28;20026;-77
2022/09/28 01:07:23;;;;;;;1.60;1.00;;;16.50;81.60;;;;;;4992170;28;20026;-78
2022/09/28 01:09:50;;;;;;;2.75;1.15;;;16.40;81.50;;;;;;4993315;28;20026;-78
2022/09/28 01:12:15;;;;;;;2.17;1.10;;;16.50;81.60;;;;;;4992000;28;20449;-78
2022/09/28 01:14:42;;;;;;;1.75;1.00;;;16.50;81.60;;;;;;4993655;28;20085;-77
2022/09/28 01:17:13;;;;;;;1.50;0.93;;;16.50;81.60;;;;;;4993498;28;20097;-77
2022/09/28 01:20:15;;;;;;;1.80;1.27;;;16.50;81.60;;;;;;4993248;28;20030;-77
2022/09/28 01:23:12;;;;;;;2.28;1.10;;;16.50;81.60;;;;;;4954490;28;20031;-78
2022/09/28 01:25:54;;;;;;;1.70;0.90;;;16.50;81.40;;;;;;4979780;28;20134;-77
2022/09/28 01:28:28;;;;;;;2.50;1.23;;;16.50;81.40;;;;;;4996288;28;20042;-75
2022/09/28 01:31:11;;;;;;;2.00;1.10;;;16.50;81.30;;;;;;4997574;28;20033;-77
2022/09/28 01:33:59;;;;;;;2.75;1.10;;;16.50;81.30;;;;;;4995469;28;20023;-79
2022/09/28 01:36:29;;;;;;;1.77;1.10;;;16.50;81.20;;;;;;4968262;28;20073;-76
2022/09/28 01:39:00;;;;;;;1.40;0.98;;;16.50;81.80;;;;;;4996583;28;20087;-78
2022/09/28 01:41:29;;;;;;;2.03;1.10;;;16.50;81.40;;;;;;4997122;28;20026;-79
2022/09/28 01:43:56;;;;;;;1.58;0.90;;;16.50;81.40;;;;;;4996319;28;20034;-79
2022/09/28 01:46:26;;;;;;;2.10;1.10;;;16.50;81.50;;;;;;4995492;28;20026;-80
2022/09/28 01:49:04;;;;;;;1.73;0.95;;;16.50;81.50;;;;;;4998264;28;20038;-77
2022/09/28 01:51:43;;;;;;;1.80;1.00;;;16.50;81.50;;;;;;5014713;28;20030;-78
2022/09/28 01:54:13;;;;;;;2.15;1.13;;;16.50;81.50;;;;;;5016105;28;20025;-78
2022/09/28 01:56:54;;;;;;;2.58;1.13;;;16.50;81.60;;;;;;5014963;28;20036;-79
2022/09/28 01:59:29;;;;;;;2.05;1.10;;;16.50;81.60;;;;;;5015230;28;20525;-79
2022/09/28 02:02:04;;;;;;;2.17;1.15;;;16.50;81.70;;;;;;5015101;28;20030;-78
2022/09/28 02:04:35;;;;;;;0.93;0.77;;;16.50;81.70;;;;;;5015258;28;20052;-78
2022/09/28 02:07:06;;;;;;;1.52;0.80;;;16.40;82.10;;;;;;5008894;28;20052;-78
2022/09/28 02:09:40;;;;;;;1.60;1.00;;;16.40;81.50;;;;;;4997339;28;20034;-79
2022/09/28 02:12:12;;;;;;;1.40;0.82;;;16.40;81.50;;;;;;4997310;28;20476;-79
2022/09/28 02:14:39;;;;;;;1.60;1.00;;;16.40;81.60;;;;;;4997674;28;20116;-80
2022/09/28 02:17:05;;;;;;;1.52;1.00;;;16.40;81.60;;;;;;4997466;28;20034;-78
2022/09/28 02:19:32;;;;;;;1.58;1.00;;;16.40;81.60;;;;;;5012414;28;20121;-79
2022/09/28 02:22:27;;;;;;;2.47;1.00;;;16.40;81.60;;;;;;4997004;28;20027;-79
2022/09/28 02:24:57;;;;;;;1.48;0.98;;;16.50;81.60;;;;;;5012449;28;20037;-78
2022/09/28 02:27:38;;;;;;;1.95;1.33;;;16.50;81.50;;;;;;4997614;28;20025;-79
2022/09/28 02:30:05;;;;;;;;;;;16.50;81.50;;;;;;4997952;28;20719;-78
2022/09/28 02:32:34;;;;;;;2.42;1.00;;;16.50;81.40;;;;;;4995589;28;19913;-77
2022/09/28 02:34:59;;;;;;;1.73;0.90;;;16.50;81.40;;;;;;5005141;28;20502;-78
2022/09/28 02:37:26;;;;;;;2.67;1.02;;;16.50;81.30;;;;;;4996937;28;20106;-80
2022/09/28 02:39:52;;;;;;;2.00;0.82;;;16.50;81.40;;;;;;4997249;28;20476;-79
2022/09/28 02:42:24;;;;;;;1.70;1.00;;;16.50;81.40;;;;;;4979153;28;20031;-80
2022/09/28 02:45:27;;;;;;;1.65;1.00;;;16.50;81.50;;;;;;4995332;28;20546;-79
2022/09/28 02:48:23;;;;;;;1.33;0.88;;;16.40;81.40;;;;;;4995558;28;20242;-78
2022/09/28 02:50:56;;;;;;;1.70;0.88;;;16.50;81.60;;;;;;4973212;28;20030;-79
2022/09/28 02:53:41;;;;;;;2.10;1.02;;;16.50;81.60;;;;;;4994726;28;20108;-79
2022/09/28 02:56:17;;;;;;;1.30;0.85;;;16.40;81.50;;;;;;4996193;28;20030;-77
2022/09/28 02:59:06;;;;;;;1.88;1.05;;;16.40;81.60;;;;;;4962195;28;20070;-79
2022/09/28 03:01:58;;;;;;;1.63;0.70;;;16.40;81.60;;;;;;4996006;28;20026;-79
2022/09/28 03:04:39;;;;;;;1.45;0.95;;;16.40;81.60;;;;;;4995310;28;20265;-78
2022/09/28 03:07:23;;;;;;;1.83;1.00;;;16.40;81.60;;;;;;4995960;28;20092;-79
2022/09/28 03:09:58;;;;;;;1.13;0.80;;;16.40;81.70;;;;;;4996581;28;20023;-79
2022/09/28 03:12:25;;;;;;;1.60;0.90;;;16.40;81.60;;;;;;4996173;28;20022;-79
2022/09/28 03:15:11;;;;;;;1.33;0.80;;;16.40;81.70;;;;;;4996861;28;20062;-80
2022/09/28 03:17:37;;;;;;;1.27;0.90;;;16.40;81.70;;;;;;4995284;28;20026;-78
2022/09/28 03:20:03;;;;;;;2.78;1.20;;;16.40;81.70;;;;;;4995040;28;20022;-79
2022/09/28 03:22:29;;;;;;;1.98;1.00;;;16.40;81.60;;;;;;4994298;28;20225;-78
2022/09/28 03:24:54;;;;;;;1.45;0.82;;;16.40;81.60;;;;;;4994919;28;20579;-78
2022/09/28 03:27:20;;;;;;;1.52;0.90;;;16.40;81.70;;;;;;4994788;28;20117;-78
2022/09/28 03:29:46;;;;;;;2.75;1.10;;;16.50;81.70;;;;;;4994634;28;20022;-79
2022/09/28 03:32:11;;;;;;;1.95;0.90;;;16.50;81.50;;;;;;4995040;28;20496;-80
2022/09/28 03:34:37;;;;;;;1.45;1.00;;;16.50;81.50;;;;;;4996940;28;20069;-79
2022/09/28 03:37:02;;;;;;;1.50;0.80;;;16.50;81.40;;;;;;4996281;28;20034;-78
2022/09/28 03:39:28;;;;;;;1.02;0.73;;;16.50;81.40;;;;;;4996118;28;20030;-79
2022/09/28 03:41:53;;;;;;;1.48;0.80;;;16.50;81.40;;;;;;4974980;28;20117;-78
2022/09/28 03:44:19;;;;;;;1.52;1.00;;;16.50;81.40;;;;;;4976143;28;20023;-79
2022/09/28 03:46:45;;;;;;;2.25;1.10;;;16.40;81.40;;;;;;4975200;28;20022;-77
2022/09/28 03:49:11;;;;;;;1.30;0.90;;;16.40;81.50;;;;;;4975801;28;20025;-79
2022/09/28 03:51:36;;;;;;;1.38;0.90;;;16.40;81.50;;;;;;4958172;28;20019;-76
2022/09/28 03:54:02;;;;;;;1.83;1.05;;;16.40;81.60;;;;;;4957873;28;20121;-78
2022/09/28 03:56:27;;;;;;;1.52;0.93;;;16.40;81.60;;;;;;4992302;28;20049;-78
2022/09/28 03:58:53;;;;;;;1.50;0.95;;;16.40;81.70;;;;;;4992505;28;20480;-77
2022/09/28 04:01:18;;;;;;;0.88;0.80;;;16.40;81.70;;;;;;4993945;28;20690;-78
2022/09/28 04:03:45;;;;;;;2.25;1.10;;;16.40;81.70;;;;;;4992095;28;20030;-77
2022/09/28 04:06:11;;;;;;;2.53;1.10;;;16.40;81.80;;;;;;4990825;28;20109;-78
2022/09/28 04:08:37;;;;;;;1.23;0.95;;;16.40;81.70;;;;;;4992044;28;20511;-79
2022/09/28 04:11:02;;;;;;;1.27;1.00;;;16.40;81.70;;;;;;4992026;28;20023;-82
2022/09/28 04:13:28;;;;;;;1.70;0.80;;;16.40;81.80;;;;;;4994383;28;20026;-77
2022/09/28 04:15:56;;;;;;;1.77;1.00;;;16.40;81.70;;;;;;4995820;28;20042;-79
2022/09/28 04:18:22;;;;;;;1.35;0.70;;;16.40;81.70;;;;;;4997756;28;20748;-78
2022/09/28 04:21:07;;;;;;;1.63;0.90;;;16.40;81.70;;;;;;4994365;28;20026;-78
2022/09/28 04:23:34;;;;;;;2.05;1.00;;;16.40;81.70;;;;;;4987577;28;20089;-77
2022/09/28 04:26:00;;;;;;;1.83;1.00;;;16.40;81.70;;;;;;4990664;28;20129;-78
2022/09/28 04:31:19;;;;;;;1.90;0.95;;;16.40;81.60;;;;;;4994838;28;20037;-78
2022/09/28 04:33:44;;;;;;;1.67;0.88;;;16.40;81.70;;;;;;4994620;28;20030;-79
2022/09/28 04:36:10;;;;;;;1.98;0.93;;;16.50;81.60;;;;;;4994055;28;20507;-75
2022/09/28 04:38:39;;;;;;;2.35;1.10;;;16.40;81.40;;;;;;4992124;28;20480;-77
2022/09/28 04:41:06;;;;;;;1.90;1.02;;;16.50;81.50;;;;;;5006982;28;20410;-75
2022/09/28 04:43:32;;;;;;;1.77;1.13;;;16.40;81.40;;;;;;4991792;28;20022;-75
2022/09/28 04:46:01;;;;;;;2.85;1.10;;;16.40;81.40;;;;;;4991879;28;20026;-75
2022/09/28 04:48:28;;;;;;;2.78;1.10;;;16.40;81.30;;;;;;4992016;28;20504;-75
2022/09/28 04:50:59;;;;;;;1.80;1.08;;;16.40;81.50;;;;;;4992075;28;20034;-75
2022/09/28 04:53:26;;;;;;;2.20;1.15;;;16.40;81.50;;;;;;5004764;28;20030;-79
2022/09/28 04:56:11;;;;;;;1.98;1.30;;;16.40;81.50;;;;;;4993512;28;20062;-78
2022/09/28 04:58:37;;;;;;;1.95;1.20;;;16.40;81.60;;;;;;4989193;28;20026;-79
2022/09/28 05:01:06;;;;;;;2.80;1.30;;;16.40;81.60;;;;;;4994038;28;20022;-78
2022/09/28 05:03:32;;;;;;;1.23;1.00;;;16.40;81.70;;;;;;4978785;28;20070;-79
2022/09/28 05:05:57;;;;;;;2.05;1.10;;;16.40;81.70;;;;;;4985825;28;20065;-78
2022/09/28 05:08:23;;;;;;;2.15;1.35;;;16.40;81.70;;;;;;4992710;28;20058;-78
2022/09/28 05:10:59;;;;;;;1.42;1.20;;;16.40;81.70;;;;;;4989242;28;20416;-78
2022/09/28 05:13:26;;;;;;;2.10;1.17;;;16.30;81.70;;;;;;4986322;28;20421;-75
2022/09/28 05:15:54;;;;;;;2.10;1.30;;;16.30;81.70;;;;;;4991460;28;20130;-78
2022/09/28 05:18:19;;;;;;;2.25;1.20;;;16.40;81.70;;;;;;4966806;28;20034;-77
2022/09/28 05:20:45;;;;;;;2.03;1.23;;;16.40;81.80;;;;;;4990272;28;20034;-76
2022/09/28 05:23:11;;;;;;;1.80;1.27;;;16.40;81.70;;;;;;4989285;28;20116;-78
2022/09/28 05:25:38;;;;;;;2.85;1.48;;;16.40;81.70;;;;;;4990217;28;20407;-76
2022/09/28 05:28:04;;;;;;;2.38;1.23;;;16.40;81.70;;;;;;4984396;28;20369;-78
2022/09/28 05:30:30;;;;;;;2.72;1.20;;;16.40;81.70;;;;;;4993142;28;20504;-78
2022/09/28 05:32:56;;;;;;;2.42;1.40;;;16.40;81.80;;;;;;4990789;28;20026;-79
2022/09/28 05:35:21;;;;;;;2.08;1.17;;;16.40;81.60;;;;;;4993443;28;20038;-80
2022/09/28 05:37:48;;;;;;;1.60;1.20;;;16.40;81.50;;;;;;4993430;28;20066;-79
2022/09/28 05:40:14;;;;;;;3.60;1.70;;;16.40;81.40;;;;;;4994938;28;20110;-79
2022/09/28 05:42:40;;;;;;;2.78;1.52;;;16.40;81.30;;;;;;4994360;28;20037;-82
2022/09/28 05:45:07;;;;;;;2.83;1.60;;;16.40;81.30;;;;;;5010923;28;20507;-79
2022/09/28 05:47:38;;;;;;;4.82;1.83;;;16.40;81.20;;;;;;4996539;28;20050;-79
2022/09/28 05:50:05;;;;;;;3.03;1.80;;;16.40;81.10;;;;;;4996603;28;20026;-79
2022/09/28 05:52:30;;;;;;;3.45;1.83;;;16.40;81.20;;;;;;5010470;28;20045;-79
2022/09/28 05:54:55;;;;;;;3.22;1.52;;;16.40;81.40;;;;;;4996019;28;20492;-78
2022/09/28 05:57:21;;;;;;;3.13;1.60;;;16.40;81.40;;;;;;5010466;28;20035;-78
2022/09/28 05:59:46;;;;;;;2.50;1.65;;;16.40;81.50;;;;;;4996101;28;20508;-80
2022/09/28 06:02:12;;;;;;;3.63;1.90;;;16.40;81.60;;;;;;5009496;28;20034;-79
2022/09/28 06:04:37;;;;;;;3.17;1.60;;;16.40;81.60;;;;;;5010498;28;20385;-78
2022/09/28 06:07:03;;;;;;;2.65;1.60;;;16.40;81.70;;;;;;4992485;28;20042;-80
2022/09/28 06:09:29;;;;;;;3.17;1.60;;;16.40;81.70;;;;;;4996388;28;20034;-78
2022/09/28 06:11:57;;;;;;;3.38;1.60;;;16.30;81.60;;;;;;5012993;28;20113;-79
2022/09/28 06:14:22;;;;;;;3.15;1.38;;;16.30;81.70;;;;;;5000308;28;20022;-80
2022/09/28 06:16:48;;;;;;;3.22;1.67;;;16.30;81.70;;;;;;5000385;28;20035;-79
2022/09/28 06:19:14;;;;;;;2.50;1.63;;;16.30;81.70;;;;;;5014969;28;20030;-80
2022/09/28 06:21:39;;;;;;;2.67;1.60;;;16.30;81.70;;;;;;4999821;28;20093;-78
2022/09/28 06:24:05;;;;;;;2.95;1.40;;;16.30;81.70;;;;;;5014224;28;20500;-81
2022/09/28 06:26:31;;;;;;;3.50;1.70;;;16.30;81.80;;;;;;4997083;28;20050;-78
2022/09/28 06:28:56;;;;;;;2.55;1.42;;;16.40;81.70;;;;;;4995751;28;20038;-79
2022/09/28 06:31:24;;;;;;;3.22;1.52;;;16.40;81.70;;;;;;5014634;28;20054;-79
2022/09/28 06:33:50;;;;;;;2.88;1.75;;;16.30;81.60;;;;;;5014222;28;20026;-80
2022/09/28 06:36:16;;;;;;;2.63;1.50;;;16.40;81.90;;;;;;5015574;28;20034;-80
2022/09/28 06:38:42;;;;;;;2.13;1.38;;;16.40;81.80;;;;;;5000126;28;20022;-80
2022/09/28 06:41:09;;;;;;;2.35;1.60;;;16.40;81.70;;;;;;4999528;28;20121;-78
2022/09/28 06:43:35;;;;;;;3.60;1.77;;;16.40;81.70;;;;;;4996852;28;20085;-78
2022/09/28 06:46:01;;;;;;;2.88;1.70;;;16.40;81.60;;;;;;4995349;28;20026;-79
2022/09/28 06:48:27;;;;;;;2.70;1.45;;;16.40;81.60;;;;;;4998249;28;20034;-78
2022/09/28 06:50:52;;;;;;;2.35;1.65;;;16.40;81.50;;;;;;4999426;28;20118;-80
2022/09/28 06:53:18;;;;;;;3.28;1.60;;;16.40;81.50;;;;;;5013517;28;20029;-80
2022/09/28 06:55:47;;;;;;;3.40;1.75;;;16.40;81.50;;;;;;4999248;28;20489;-79
2022/09/28 06:58:16;;;;;;;2.60;1.60;;;16.40;81.60;;;;;;5013267;28;20481;-79
2022/09/28 07:00:42;;;;;;;2.45;1.60;;;16.40;81.70;;;;;;5013828;28;20026;-79
2022/09/28 07:03:14;;;;;;;2.55;1.50;;;16.40;81.70;;;;;;5012872;28;20522;-78
2022/09/28 07:05:44;;;;;;;2.47;1.50;;;16.40;81.80;;;;;;5012861;28;20030;-80
2022/09/28 07:08:10;;;;;;;2.58;1.65;;;16.40;81.60;;;;;;4996377;28;20038;-78
2022/09/28 07:10:44;;;;;;;2.80;1.65;;;16.40;82.30;;;;;;4995853;28;20034;-79
2022/09/28 07:13:10;;;;;;;2.92;1.70;;;16.40;81.70;;;;;;4997931;28;20238;-80
2022/09/28 07:15:36;;;;;;;3.05;1.80;;;16.40;81.80;;;;;;4996967;28;20034;-79
2022/09/28 07:18:04;;;;;;;2.33;1.50;;;16.40;81.80;;;;;;4995539;28;20476;-80
2022/09/28 07:20:30;;;;;;;2.88;1.60;;;16.40;81.90;;;;;;4995634;28;20631;-78
2022/09/28 07:23:01;;;;;;;3.35;1.70;;;16.40;81.80;;;;;;4996575;28;20030;-80
2022/09/28 07:25:31;;;;;;;2.90;1.70;;;16.40;81.90;;;;;;4994689;28;20034;-78
2022/09/28 07:27:58;;;;;;;2.95;1.65;;;16.40;81.80;;;;;;4993217;28;20386;-78
2022/09/28 07:30:26;;;;;;;2.95;1.60;;;16.40;81.90;;;;;;4993453;28;20018;-79
2022/09/28 07:32:51;;;;;;;2.97;1.70;;;16.30;81.80;;;;;;4993057;28;20510;-78
2022/09/28 07:35:17;;;;;;;3.00;1.75;;;16.40;82.00;;;;;;4993368;28;20034;-79
2022/09/28 07:37:43;;;;;;;2.65;1.60;;;16.30;81.80;;;;;;4993486;28;20026;-76
2022/09/28 07:42:53;;;;;;;2.22;1.50;;;16.30;81.80;;;;;;4993354;28;20089;-77
2022/09/28 07:45:24;;;;;;;3.00;1.70;;;16.30;82.00;;;;;;4991972;28;20447;-79
2022/09/28 07:47:56;;;;;;;;;;;16.40;82.00;;;;;;4993955;28;20106;-78
2022/09/28 07:50:21;;;;;;;2.88;1.55;;;16.40;81.90;;;;;;4993990;28;19917;-77
2022/09/28 07:52:48;;;;;;;2.30;1.40;;;16.40;81.80;;;;;;4992720;28;20026;-79
2022/09/28 07:55:13;;;;;;;3.45;1.58;;;16.40;81.80;;;;;;4993056;28;20057;-77
2022/09/28 07:57:39;;;;;;;2.92;1.58;;;16.40;81.70;;;;;;4993099;28;20057;-78
2022/09/28 08:00:07;;;;;;;2.30;1.50;;;16.40;81.80;;;;;;4993058;28;20487;-78
2022/09/28 08:02:33;;;;;;;2.60;1.70;;;16.40;81.80;;;;;;4991247;28;20113;-79
2022/09/28 08:04:59;;;;;;;2.65;1.60;;;16.40;81.90;;;;;;4991974;28;20037;-78
2022/09/28 08:07:24;;;;;;;2.47;1.60;;;16.40;81.90;;;;;;4992999;28;20044;-77
2022/09/28 08:09:50;;;;;;;1.90;1.38;;;16.40;81.90;;;;;;4992943;28;20471;-77
2022/09/28 08:12:18;;;;;;;2.90;1.58;;;16.40;82.00;;;;;;4992322;28;20027;-77
2022/09/28 08:14:44;;;;;;;2.17;1.60;;;16.40;82.00;;;;;;4992541;28;20022;-77
2022/09/28 08:17:10;;;;;;;2.67;1.60;;;16.40;82.00;;;;;;4992613;28;20034;-77
2022/09/28 08:22:20;;;;;;;3.25;1.60;;;16.30;82.00;;;;;;4992294;28;20081;-78
2022/09/28 08:24:46;;;;;;;3.00;1.67;;;16.40;82.00;;;;;;4991184;28;20019;-78
2022/09/28 08:27:13;;;;;;;3.25;1.70;;;16.30;82.00;;;;;;4991278;28;20030;-77
2022/09/28 08:29:38;;;;;;;2.33;1.50;;;16.30;82.00;;;;;;4992474;28;20030;-77
2022/09/28 08:32:07;;;;;;;2.33;1.50;;;16.30;82.00;;;;;;4991576;28;20377;-78
2022/09/28 08:34:34;;;;;;;3.05;1.80;;;16.30;81.90;;;;;;4991117;28;20396;-79
2022/09/28 08:37:00;;;;;;;2.63;1.70;;;16.40;82.00;;;;;;4993832;28;20456;-78
2022/09/28 08:39:26;;;;;;;3.03;1.70;;;16.40;82.00;;;;;;4992441;28;20072;-78
2022/09/28 08:42:20;;;;;;;2.95;1.70;;;16.40;81.90;;;;;;4991418;28;20023;-78
2022/09/28 08:44:56;;;;;;;2.47;1.63;;;16.40;81.90;;;;;;4965547;28;20050;-79
2022/09/28 08:50:24;;;;;;;3.17;1.80;;;16.40;81.70;;;;;;4992472;28;20037;-77
2022/09/28 08:52:55;;;;;;;3.10;1.70;;;16.40;81.70;;;;;;4991763;28;20469;-79
2022/09/28 08:55:29;;;;;;;2.47;1.50;;;16.40;81.50;;;;;;4991200;28;20034;-79
2022/09/28 08:58:09;;;;;;;2.78;1.70;;;16.40;81.70;;;;;;4974663;28;20037;-80
2022/09/28 09:00:37;;;;;;;2.83;1.67;;;16.40;81.60;;;;;;4990780;28;20030;-79
2022/09/28 09:03:11;;;;;;;3.00;1.70;;;16.40;81.70;;;;;;4991877;28;20288;-79
2022/09/28 09:06:20;;;;;;;2.35;1.52;;;16.40;81.60;;;;;;4992014;28;20027;-80
2022/09/28 09:09:08;;;;;;;2.83;1.60;;;16.40;81.70;;;;;;4961339;28;20033;-79
2022/09/28 09:12:12;;;;;;;4.05;1.75;;;16.40;81.70;;;;;;4990712;28;20026;-79
2022/09/28 09:14:56;;;;;;;2.35;1.50;;;16.40;81.80;;;;;;4965627;28;20093;-79
2022/09/28 09:17:43;;;;;;;2.38;1.40;;;16.40;81.80;;;;;;4991641;28;20476;-79
2022/09/28 09:20:43;;;;;;;2.20;1.40;;;16.40;81.80;;;;;;4974616;28;20019;-79
2022/09/28 09:23:19;;;;;;;2.10;1.50;;;16.40;81.80;;;;;;4991353;28;20023;-79
2022/09/28 09:25:52;;;;;;;3.00;1.70;;;16.40;81.90;;;;;;4991671;28;20039;-78
2022/09/28 09:28:30;;;;;;;2.63;1.55;;;16.40;81.90;;;;;;4990554;28;20026;-78
2022/09/28 09:31:10;;;;;;;3.05;1.60;;;16.40;81.90;;;;;;4974596;28;20077;-78
2022/09/28 09:33:47;;;;;;;2.13;1.42;;;16.40;81.90;;;;;;4991162;28;20389;-79
2022/09/28 09:36:33;;;;;;;2.60;1.60;;;16.40;81.90;;;;;;4991939;28;20026;-79
2022/09/28 09:39:04;;;;;;;2.47;1.50;;;16.40;81.90;;;;;;4991809;28;20034;-79
2022/09/28 09:41:51;;;;;;;2.92;1.73;;;16.40;81.90;;;;;;4974353;28;20455;-79
2022/09/28 09:44:22;;;;;;;2.88;1.70;;;16.40;81.80;;;;;;4993558;28;20027;-78
2022/09/28 09:46:58;;;;;;;2.60;1.50;;;16.40;81.70;;;;;;4977940;28;20094;-78
2022/09/28 09:49:32;;;;;;;2.40;1.40;;;16.40;81.70;;;;;;4995017;28;20073;-78
2022/09/28 09:52:20;;;;;;;2.50;1.45;;;16.50;81.70;;;;;;4977726;28;20503;-77
2022/09/28 09:54:54;;;;;;;2.30;1.60;;;16.50;81.60;;;;;;4987940;28;20030;-78
2022/09/28 09:57:28;;;;;;;2.00;1.40;;;16.50;81.50;;;;;;4993360;28;20022;-78
2022/09/28 09:59:55;;;;;;;2.15;1.40;;;16.50;81.40;;;;;;4994925;28;20027;-78
2022/09/28 10:02:24;;;;;;;2.72;1.58;;;16.50;81.30;;;;;;4995318;28;20088;-79
2022/09/28 10:04:59;;;;;;;1.98;1.40;;;16.50;81.30;;;;;;4994556;28;20034;-79
2022/09/28 10:07:36;;;;;;;2.10;1.58;;;16.50;81.40;;;;;;4998482;28;20033;-79
2022/09/28 10:10:02;;;;;;;1.80;1.27;;;16.50;81.40;;;;;;4993082;28;20400;-77
2022/09/28 10:12:28;;;;;;;2.42;1.40;;;16.50;81.50;;;;;;4992356;28;20037;-74
2022/09/28 10:14:54;;;;;;;2.13;1.50;;;16.50;81.50;;;;;;4992528;28;20053;-78
2022/09/28 10:17:25;;;;;;;1.90;1.30;;;16.40;81.50;;;;;;4996128;28;20080;-79
2022/09/28 10:19:52;;;;;;;2.20;1.30;;;16.40;81.50;;;;;;4995460;28;20031;-79
2022/09/28 10:22:22;;;;;;;2.50;1.50;;;16.40;81.50;;;;;;4992703;28;20369;-79
2022/09/28 10:24:53;;;;;;;2.20;1.55;;;16.50;81.60;;;;;;4995144;28;20507;-77
2022/09/28 10:27:27;;;;;;;1.85;1.30;;;16.40;81.50;;;;;;4978722;28;20030;-79
2022/09/28 10:30:00;;;;;;;2.30;1.30;;;16.40;81.50;;;;;;4979869;28;20467;-78
2022/09/28 10:32:36;;;;;;;2.15;1.40;;;16.40;81.60;;;;;;4978521;28;20033;-79
2022/09/28 10:35:22;;;;;;;2.90;1.42;;;16.40;81.70;;;;;;4996509;28;20046;-80
2022/09/28 10:37:51;;;;;;;2.03;1.40;;;16.40;81.50;;;;;;4978243;28;20394;-80
2022/09/28 10:40:40;;;;;;;1.98;1.40;;;16.40;81.50;;;;;;4978180;28;20432;-80
2022/09/28 10:43:21;;;;;;;2.40;1.40;;;16.40;81.50;;;;;;4994211;28;20031;-79
2022/09/28 10:45:47;;;;;;;2.20;1.50;;;16.40;81.60;;;;;;4994807;28;20113;-78
2022/09/28 10:48:21;;;;;;;2.45;1.40;;;16.40;81.70;;;;;;4978395;28;20023;-79
2022/09/28 10:51:06;;;;;;;2.45;1.35;;;16.40;81.50;;;;;;4979002;28;20036;-78
2022/09/28 10:53:35;;;;;;;3.22;1.35;;;16.40;81.50;;;;;;4996026;28;20113;-79
2022/09/28 10:56:04;;;;;;;2.78;1.50;;;16.40;81.50;;;;;;4978484;28;20034;-81
2022/09/28 10:58:40;;;;;;;3.13;1.80;;;16.40;81.40;;;;;;4978562;28;20030;-79
2022/09/28 11:01:10;;;;;;;2.13;1.20;;;16.40;81.30;;;;;;4987917;28;20030;-77
2022/09/28 11:03:56;;;;;;;2.65;1.35;;;16.40;81.20;;;;;;4964256;28;20034;-77
2022/09/28 11:06:27;;;;;;;1.67;1.30;;;16.40;81.40;;;;;;4986288;28;20495;-79
2022/09/28 11:08:56;;;;;;;2.40;1.38;;;16.40;81.30;;;;;;4969674;28;20064;-78
2022/09/28 11:11:23;;;;;;;1.90;1.27;;;16.40;81.30;;;;;;4986826;28;20037;-77
2022/09/28 11:13:57;;;;;;;2.13;1.30;;;16.40;81.20;;;;;;4985426;28;20030;-78
2022/09/28 11:16:35;;;;;;;2.38;1.48;;;16.40;81.30;;;;;;4987013;28;20110;-79
2022/09/28 11:19:25;;;;;;;1.75;1.25;;;16.40;81.20;;;;;;4986767;28;20146;-79
2022/09/28 11:21:51;;;;;;;1.83;1.20;;;16.40;81.20;;;;;;4985077;28;20035;-78
2022/09/28 11:24:18;;;;;;;2.08;1.38;;;16.40;81.20;;;;;;4985971;28;20040;-77
2022/09/28 11:26:46;;;;;;;1.85;1.38;;;16.50;81.30;;;;;;4986911;28;20514;-76
2022/09/28 11:29:25;;;;;;;2.35;1.45;;;16.50;81.30;;;;;;4986929;28;20030;-76
2022/09/28 11:31:51;;;;;;;2.55;1.50;;;16.50;81.20;;;;;;4985341;28;20060;-79
2022/09/28 11:34:27;;;;;;;2.70;1.45;;;16.40;81.30;;;;;;4985461;28;20026;-76
2022/09/28 11:37:01;;;;;;;2.03;1.10;;;16.50;81.30;;;;;;4987817;28;20026;-76
2022/09/28 11:40:12;;;;;;;3.90;1.40;;;16.40;81.30;;;;;;4987422;28;20041;-78
2022/09/28 11:42:48;;;;;;;1.80;1.30;;;16.40;81.20;;;;;;4985471;28;20030;-76
2022/09/28 11:45:41;;;;;;;2.72;1.33;;;16.40;81.40;;;;;;4987166;28;20500;-75
2022/09/28 11:48:11;;;;;;;2.00;1.30;;;16.40;81.40;;;;;;4985918;28;20030;-75
2022/09/28 11:50:48;;;;;;;1.98;1.33;;;16.30;81.30;;;;;;4987124;28;20038;-77
2022/09/28 11:53:34;;;;;;;2.25;1.33;;;16.40;81.50;;;;;;4985691;28;20026;-75
2022/09/28 11:56:31;;;;;;;1.85;1.10;;;16.40;81.30;;;;;;4986889;28;20084;-75
2022/09/28 11:59:13;;;;;;;2.35;1.13;;;16.40;81.30;;;;;;4987000;28;20041;-77
2022/09/28 12:01:55;;;;;;;1.80;1.20;;;16.40;81.20;;;;;;4986749;28;20044;-79
2022/09/28 12:04:27;;;;;;;2.15;1.20;;;16.40;81.20;;;;;;4985414;28;20072;-75
2022/09/28 12:06:58;;;;;;;1.83;1.20;;;16.40;81.20;;;;;;4986081;28;20023;-76
2022/09/28 12:09:34;;;;;;;2.65;1.30;;;16.40;81.10;;;;;;4985490;28;20122;-78
2022/09/28 12:12:07;;;;;;;2.05;1.30;;;16.50;81.20;;;;;;4984973;28;20093;-76
2022/09/28 12:14:37;;;;;;;1.63;1.10;;;16.50;81.20;;;;;;4986471;28;20034;-75
2022/09/28 12:17:16;;;;;;;1.98;1.27;;;16.50;81.40;;;;;;4986760;28;20034;-78
2022/09/28 12:19:49;;;;;;;1.83;1.25;;;16.40;81.40;;;;;;4984537;28;20344;-76
2022/09/28 12:22:41;;;;;;;2.00;1.40;;;16.50;82.10;;;;;;4985772;28;20030;-76
2022/09/28 12:25:13;;;;;;;2.28;1.20;;;16.40;81.50;;;;;;4985118;28;20448;-77
2022/09/28 12:27:41;;;;;;;1.95;1.30;;;16.50;81.70;;;;;;4986284;28;20026;-77
2022/09/28 12:30:26;;;;;;;1.73;1.20;;;16.40;81.60;;;;;;4984722;28;20105;-77
2022/09/28 12:33:02;;;;;;;2.13;1.23;;;16.40;81.70;;;;;;4977079;28;20555;-78
2022/09/28 12:35:52;;;;;;;2.13;1.20;;;16.30;81.60;;;;;;4985164;28;20030;-76
2022/09/28 12:38:43;;;;;;;1.98;1.30;;;16.30;81.80;;;;;;4986670;28;20034;-77
2022/09/28 12:41:48;;;;;;;1.38;1.10;;;16.40;81.80;;;;;;4969650;28;20046;-75
2022/09/28 12:44:40;;;;;;;2.00;1.20;;;16.40;81.60;;;;;;4968278;28;20408;-75
2022/09/28 12:47:24;;;;;;;1.55;1.15;;;16.40;81.90;;;;;;4986147;28;20413;-78
2022/09/28 12:50:15;;;;;;;2.42;1.20;;;16.30;81.70;;;;;;4968683;28;20077;-76
2022/09/28 12:52:50;;;;;;;1.75;1.10;;;16.30;81.80;;;;;;4984359;28;20035;-76
2022/09/28 12:55:23;;;;;;;1.60;1.20;;;16.40;81.90;;;;;;4968847;28;20061;-76
2022/09/28 12:58:22;;;;;;;1.67;1.15;;;16.30;81.70;;;;;;4986061;28;20022;-77
2022/09/28 13:00:53;;;;;;;1.77;1.05;;;16.40;81.60;;;;;;4986614;28;20026;-77
2022/09/28 13:04:03;;;;;;;1.65;1.20;;;16.40;81.60;;;;;;4968135;28;20034;-77
2022/09/28 13:06:56;;;;;;;1.48;1.05;;;16.40;81.60;;;;;;4962769;28;20046;-78
2022/09/28 13:09:23;;;;;;;1.80;1.05;;;16.50;81.50;;;;;;4968402;28;20044;-78
2022/09/28 13:12:17;;;;;;;1.48;1.02;;;16.50;81.30;;;;;;4984549;28;20026;-77
2022/09/28 13:14:55;;;;;;;2.00;1.10;;;16.50;81.10;;;;;;4985965;28;20034;-77
2022/09/28 13:17:50;;;;;;;1.60;1.00;;;16.60;81.00;;;;;;4986083;28;20026;-75
2022/09/28 13:20:34;;;;;;;1.10;1.00;;;16.60;80.90;;;;;;4990143;28;20030;-78
2022/09/28 13:23:45;;;;;;;1.63;1.00;;;16.60;80.80;;;;;;4971927;28;20022;-76
2022/09/28 13:26:38;;;;;;;1.98;1.10;;;16.60;80.70;;;;;;4968918;28;20172;-77
2022/09/28 13:29:10;;;;;;;1.27;1.10;;;16.60;80.70;;;;;;4989694;28;20042;-77